Terminal Aerodrome Forecast
Issued by NWS Cleveland, OH

Home | Current Version | Previous Version | Graphics & Text | Print | Product List | Glossary Off
Versions: 1 2 3 4 5 6 7 8 9 10 11 12 13 14 15 16 17 18 19 20 21

000
FTUS41 KCLE 301122
TAFYNG
TAF
KYNG 301122Z 3012/3112 VRB03KT P6SM VCSH SCT035 OVC150
     FM301500 20004KT P6SM VCSH SCT035 BKN080
     FM301800 22006KT P6SM VCTS BKN035CB
     FM302200 10005KT P6SM -TSRA BKN035CB
     FM310400 11005KT 4SM BR SCT250
     FM310900 VRB03KT 2SM BR OVC003=

USA.gov is the U.S. government's official web portal to all federal, state and local government web resources and services.